Time;durP1;ratioP1;P1;durP2;ratioP2;P2;SDS_P1;SDS_P2;PMS_P1;PMS_P2;Temp;Humidity;BMP_temperature;BMP_pressure;BME280_temperature;BME280_humidity;BME280_pressure;Samples;Min_cycle;Max_cycle;Signal;HPM_P1;HPM_P2
2022/05/20 00:01:48;;;;;;;;;;;384.40;1766.40;;;;;;5117211;28;19903;-64
2022/05/20 00:04:13;;;;;;;;;;;384.50;1766.40;;;;;;5117185;28;19904;-68
2022/05/20 00:06:39;;;;;;;;;;;384.40;1817.60;;;;;;5117148;28;19904;-64
2022/05/20 00:09:05;;;;;;;;;;;384.30;1817.60;;;;;;5117663;28;19914;-66
2022/05/20 00:11:31;;;;;;;;;;;384.20;1843.20;;;;;;5117035;28;20319;-64
2022/05/20 00:13:56;;;;;;;;;;;384.40;1792.00;;;;;;5116976;28;19911;-64
2022/05/20 00:16:22;;;;;;;;;;;384.20;1817.60;;;;;;5116870;28;19907;-68
2022/05/20 00:18:48;;;;;;;;;;;384.20;1817.60;;;;;;5116884;28;19911;-64
2022/05/20 00:21:14;;;;;;;;;;;384.30;1766.40;;;;;;5117116;28;19903;-68
2022/05/20 00:23:39;;;;;;;;;;;384.30;1766.40;;;;;;5116786;28;19904;-68
2022/05/20 00:26:05;;;;;;;;;;;384.10;1792.00;;;;;;5117301;28;19907;-66
2022/05/20 00:28:31;;;;;;;;;;;384.00;1843.20;;;;;;5116639;28;19908;-68
2022/05/20 00:30:58;;;;;;;;;;;359.30;1843.20;;;;;;5116703;28;19907;-64
2022/05/20 00:33:25;;;;;;;;;;;359.20;1817.60;;;;;;5116479;28;20273;-68
2022/05/20 00:35:51;;;;;;;;;;;384.00;1792.00;;;;;;5116349;28;19923;-68
2022/05/20 00:38:16;;;;;;;;;;;359.30;1792.00;;;;;;5116440;28;19908;-64
2022/05/20 00:40:43;;;;;;;;;;;359.20;1792.00;;;;;;5116489;28;19933;-64
2022/05/20 00:43:14;;;;;;;;;;;359.10;1792.00;;;;;;5116403;28;20298;-64
2022/05/20 00:45:40;;;;;;;;;;;359.20;1792.00;;;;;;5116184;28;19904;-63
2022/05/20 00:48:06;;;;;;;;;;;358.90;1843.20;;;;;;5116590;28;20275;-64
2022/05/20 00:50:33;;;;;;;;;;;359.10;1843.20;;;;;;5116266;28;19903;-64
2022/05/20 00:52:59;;;;;;;;;;;358.90;1868.80;;;;;;5116245;28;19947;-69
2022/05/20 00:55:25;;;;;;;;;;;359.10;1792.00;;;;;;5116400;28;19958;-69
2022/05/20 00:57:52;;;;;;;;;;;;;;;;;;5116511;28;19915;-68
2022/05/20 01:00:18;;;;;;;;;;;;;;;;;;5116145;28;20387;-65
2022/05/20 01:02:44;;;;;;;;;;;;;;;;;;5116373;28;19904;-69
2022/05/20 01:05:10;;;;;;;;;;;;;;;;;;5116036;28;19904;-68
2022/05/20 01:07:36;;;;;;;;;;;;;;;;;;5116257;28;19914;-65
2022/05/20 01:10:02;;;;;;;;;;;359.10;1792.00;;;;;;5116103;28;19907;-68
2022/05/20 01:12:28;;;;;;;;;;;359.10;1792.00;;;;;;5116170;28;19926;-68
2022/05/20 01:14:54;;;;;;;;;;;359.20;1792.00;;;;;;5116149;28;19973;-64
2022/05/20 01:17:20;;;;;;;;;;;384.00;1792.00;;;;;;5115699;28;20364;-64
2022/05/20 01:19:48;;;;;;;;;;;384.10;1766.40;;;;;;5116340;28;19913;-64
2022/05/20 01:22:25;;;;;;;;;;;384.00;1792.00;;;;;;5115664;28;19904;-68
2022/05/20 01:24:51;;;;;;;;;;;384.00;1792.00;;;;;;5115710;28;19904;-69
2022/05/20 01:27:16;;;;;;;;;;;359.30;1766.40;;;;;;5115626;28;19949;-63
2022/05/20 01:29:42;;;;;;;;;;;384.00;1792.00;;;;;;5115451;28;19904;-69
2022/05/20 01:32:08;;;;;;;;;;;384.00;1792.00;;;;;;5115769;28;19904;-69
2022/05/20 01:34:34;;;;;;;;;;;;;;;;;;5115159;28;20372;-65
2022/05/20 01:37:00;;;;;;;;;;;;;;;;;;5115282;28;19945;-65
2022/05/20 01:39:26;;;;;;;;;;;;;;;;;;5115586;28;19953;-64
2022/05/20 01:41:52;;;;;;;;;;;;;;;;;;5115840;28;20057;-69
2022/05/20 01:44:18;;;;;;;;;;;;;;;;;;5115148;28;20404;-64
2022/05/20 01:46:46;;;;;;;;;;;359.00;1792.00;;;;;;5115224;28;19946;-69
2022/05/20 01:49:18;;;;;;;;;;;358.80;1843.20;;;;;;5115315;28;20007;-63
2022/05/20 01:51:49;;;;;;;;;;;358.60;1868.80;;;;;;5115470;28;19904;-68
2022/05/20 01:54:38;;;;;;;;;;;358.70;1817.60;;;;;;5115040;28;19904;-68
2022/05/20 01:57:24;;;;;;;;;;;358.80;1817.60;;;;;;5108590;28;19912;-68
2022/05/20 01:59:53;;;;;;;;;;;358.60;1843.20;;;;;;5114588;28;19904;-63
2022/05/20 02:02:41;;;;;;;;;;;358.70;1843.20;;;;;;5114892;28;19939;-63
2022/05/20 02:05:16;;;;;;;;;;;358.50;1843.20;;;;;;5108973;28;19911;-63
2022/05/20 02:07:43;;;;;;;;;;;358.50;1843.20;;;;;;5115072;28;19904;-67
2022/05/20 02:10:16;;;;;;;;;;;333.70;2073.60;;;;;;5115046;28;19903;-64
2022/05/20 02:12:46;;;;;;;;;;;358.50;1868.80;;;;;;5114853;28;19904;-69
2022/05/20 02:15:18;;;;;;;;;;;358.50;1868.80;;;;;;5115307;28;20437;-69
2022/05/20 02:17:46;;;;;;;;;;;358.50;1868.80;;;;;;5114583;28;19959;-69
2022/05/20 02:20:30;;;;;;;;;;;358.60;1868.80;;;;;;5114679;28;20307;-63
2022/05/20 02:23:00;;;;;;;;;;;358.60;1868.80;;;;;;5114593;28;20273;-63
2022/05/20 02:25:28;;;;;;;;;;;358.60;1868.80;;;;;;5114506;28;20006;-64
2022/05/20 02:27:57;;;;;;;;;;;358.50;1868.80;;;;;;5114462;28;20409;-70
2022/05/20 02:30:25;;;;;;;;;;;358.50;1894.40;;;;;;5114487;28;19903;-67
2022/05/20 02:33:11;;;;;;;;;;;358.40;1894.40;;;;;;5114450;28;19904;-66
2022/05/20 02:35:37;;;;;;;;;;;358.40;1894.40;;;;;;5113708;28;19916;-64
2022/05/20 02:38:07;;;;;;;;;;;358.40;1920.00;;;;;;5114219;28;20264;-63
2022/05/20 02:40:33;;;;;;;;;;;333.70;1920.00;;;;;;5114592;28;19908;-64
2022/05/20 02:42:59;;;;;;;;;;;333.60;1920.00;;;;;;5114332;28;20011;-69
2022/05/20 02:45:24;;;;;;;;;;;333.60;1945.60;;;;;;5096022;28;19918;-65
2022/05/20 02:47:50;;;;;;;;;;;333.70;1920.00;;;;;;5114194;28;19904;-68
2022/05/20 02:50:16;;;;;;;;;;;333.60;1945.60;;;;;;5114720;28;19904;-67
2022/05/20 02:52:42;;;;;;;;;;;333.30;1971.20;;;;;;5114593;28;20237;-64
2022/05/20 02:55:08;;;;;;;;;;;333.40;1971.20;;;;;;5114215;28;19907;-63
2022/05/20 02:57:34;;;;;;;;;;;333.30;1971.20;;;;;;5114443;28;20366;-67
2022/05/20 03:05:28;;;;;;;;;;;333.30;1971.20;;;;;;5114846;28;19956;-63
2022/05/20 03:07:53;;;;;;;;;;;333.40;1971.20;;;;;;5114101;28;19904;-63
2022/05/20 03:10:19;;;;;;;;;;;333.40;1971.20;;;;;;5118357;28;19904;-68
2022/05/20 03:12:45;;;;;;;;;;;333.50;1971.20;;;;;;5118851;28;20003;-63
2022/05/20 03:15:11;;;;;;;;;;;333.40;1971.20;;;;;;5118488;28;19903;-64
2022/05/20 03:17:37;;;;;;;;;;;333.30;1996.80;;;;;;5118223;28;19919;-70
2022/05/20 03:20:03;;;;;;;;;;;333.30;1971.20;;;;;;5118082;28;19903;-65
2022/05/20 03:22:29;;;;;;;;;;;333.40;1945.60;;;;;;5117979;28;19957;-68
2022/05/20 03:24:55;;;;;;;;;;;333.00;1996.80;;;;;;5118013;28;19912;-68
2022/05/20 03:27:21;;;;;;;;;;;332.80;1996.80;;;;;;5118165;28;19991;-66
2022/05/20 03:29:46;;;;;;;;;;;332.80;2022.40;;;;;;5117862;28;19904;-68
2022/05/20 03:32:12;;;;;;;;;;;308.10;2022.40;;;;;;5117816;28;19904;-69
2022/05/20 03:34:39;;;;;;;;;;;308.00;2048.00;;;;;;5117640;28;19910;-64
2022/05/20 03:37:04;;;;;;;;;;;307.90;2048.00;;;;;;5117655;28;19919;-63
2022/05/20 03:39:30;;;;;;;;;;;307.90;2073.60;;;;;;5117599;28;19908;-69
2022/05/20 03:41:57;;;;;;;;;;;308.00;2073.60;;;;;;5117957;28;19908;-63
2022/05/20 03:44:23;;;;;;;;;;;308.00;2099.20;;;;;;5117611;28;19927;-68
2022/05/20 03:46:51;;;;;;;;;;;307.90;2124.80;;;;;;5117808;28;19911;-65
2022/05/20 03:49:17;;;;;;;;;;;307.90;2150.40;;;;;;5117440;28;19903;-64
2022/05/20 03:51:45;;;;;;;;;;;308.10;2099.20;;;;;;5117437;28;19986;-64
2022/05/20 03:54:11;;;;;;;;;;;332.80;2124.80;;;;;;5117731;28;19910;-68
2022/05/20 03:56:38;;;;;;;;;;;332.90;2099.20;;;;;;5117280;28;20045;-67
2022/05/20 03:59:03;;;;;;;;;;;333.20;2048.00;;;;;;5117236;28;20344;-69
2022/05/20 04:04:14;;;;;;;;;;;;;;;;;;5117543;28;20288;-65
2022/05/20 04:06:39;;;;;;;;;;;333.50;2022.40;;;;;;5117152;28;19904;-63
2022/05/20 04:09:05;;;;;;;;;;;333.40;2022.40;;;;;;5117391;28;19907;-69
2022/05/20 04:11:31;;;;;;;;;;;333.50;1996.80;;;;;;5117100;28;20322;-64
2022/05/20 04:13:57;;;;;;;;;;;333.60;2022.40;;;;;;5117070;28;19957;-68
2022/05/20 04:16:23;;;;;;;;;;;333.70;1996.80;;;;;;5116937;28;19908;-68
2022/05/20 04:18:49;;;;;;;;;;;358.60;1971.20;;;;;;5117298;28;19907;-64
2022/05/20 04:21:15;;;;;;;;;;;358.50;2022.40;;;;;;5116616;28;19958;-64
2022/05/20 04:23:41;;;;;;;;;;;358.60;2022.40;;;;;;5116774;28;19903;-68
2022/05/20 04:26:07;;;;;;;;;;;358.70;1996.80;;;;;;5117082;28;19903;-63
2022/05/20 04:28:33;;;;;;;;;;;358.90;1971.20;;;;;;5116765;28;19957;-64
2022/05/20 04:31:00;;;;;;;;;;;358.90;1945.60;;;;;;5116730;28;19908;-64
2022/05/20 04:33:26;;;;;;;;;;;359.10;1945.60;;;;;;5116684;28;20409;-66
2022/05/20 04:35:52;;;;;;;;;;;;;;;;;;5116432;28;20002;-68
2022/05/20 04:38:18;;;;;;;;;;;;;;;;;;5116740;28;20360;-64
2022/05/20 04:40:44;;;;;;;;;;;359.10;1920.00;;;;;;5116566;28;20012;-64
2022/05/20 04:48:38;;;;;;;;;;;384.20;1868.80;;;;;;5116425;28;19964;-67
2022/05/20 04:51:04;;;;;;;;;;;384.60;1843.20;;;;;;5116507;28;20423;-68
2022/05/20 04:56:14;;;;;;;;;;;409.70;1843.20;;;;;;5116202;28;19930;-68
2022/05/20 04:58:40;;;;;;;10.45;4.72;;;409.80;1817.60;;;;;;5116335;28;20328;-69
2022/05/20 05:01:05;;;;;;;16.33;5.95;;;410.00;1817.60;;;;;;5115304;28;20028;-64
2022/05/20 05:03:31;;;;;;;17.15;5.32;;;410.10;1766.40;;;;;;5115610;28;20026;-68
2022/05/20 05:05:59;;;;;;;8.70;4.93;;;410.10;1792.00;;;;;;5115942;28;20027;-67
2022/05/20 05:08:25;;;;;;;10.77;5.05;;;410.30;1766.40;;;;;;5097287;28;20015;-67
2022/05/20 05:10:52;;;;;;;9.85;5.28;;;410.40;1766.40;;;;;;5114367;28;20370;-68
2022/05/20 05:13:18;;;;;;;10.93;5.40;;;435.20;1740.80;;;;;;5114422;28;20387;-63
2022/05/20 05:15:44;;;;;;;11.13;5.22;;;435.30;1689.60;;;;;;5114248;28;20878;-63
2022/05/20 05:18:12;;;;;;;12.43;5.53;;;435.60;1664.00;;;;;;5114292;28;20402;-68
2022/05/20 05:20:50;;;;;;;18.43;6.03;;;435.70;1638.40;;;;;;5114062;28;20370;-68
2022/05/20 05:23:17;;;;;;;8.90;4.35;;;435.80;1664.00;;;;;;5114331;28;20431;-64
2022/05/20 05:25:43;;;;;;;10.82;4.60;;;436.00;1612.80;;;;;;5114366;28;20373;-68
2022/05/20 05:28:10;;;;;;;6.78;4.80;;;436.00;1587.20;;;;;;5114176;28;20768;-68
2022/05/20 05:30:36;;;;;;;10.57;4.73;;;436.10;1638.40;;;;;;5113851;28;20420;-66
2022/05/20 05:33:03;;;;;;;8.90;4.45;;;436.10;1587.20;;;;;;5113776;28;20363;-64
2022/05/20 05:35:31;;;;;;;7.30;4.82;;;460.80;1612.80;;;;;;5113585;28;20439;-65
2022/05/20 05:37:57;;;;;;;10.98;4.22;;;460.90;1612.80;;;;;;5114910;28;20035;-65
2022/05/20 05:40:28;;;;;;;10.18;3.92;;;460.90;1638.40;;;;;;5115146;28;20024;-68
2022/05/20 05:42:55;;;;;;;14.57;4.32;;;460.80;1638.40;;;;;;5114924;28;20024;-69
2022/05/20 05:45:24;;;;;;;10.30;4.20;;;460.80;1638.40;;;;;;5114568;28;20027;-68
2022/05/20 05:47:59;;;;;;;11.23;4.10;;;460.80;1664.00;;;;;;5114768;28;20024;-68
2022/05/20 05:50:25;;;;;;;5.95;3.40;;;460.80;1638.40;;;;;;5114783;28;20020;-68
2022/05/20 05:53:16;;;;;;;7.93;3.22;;;460.90;1664.00;;;;;;5114428;28;20039;-70
2022/05/20 05:55:45;;;;;;;7.50;3.45;;;460.90;1612.80;;;;;;5102296;28;20063;-69
2022/05/20 05:58:11;;;;;;;8.50;3.42;;;461.10;1638.40;;;;;;5101905;28;20077;-68
2022/05/20 06:00:38;;;;;;;8.15;3.33;;;461.20;1587.20;;;;;;5112275;27;20445;-68
2022/05/20 06:03:05;;;;;;;6.45;3.22;;;461.30;1587.20;;;;;;5123155;27;20066;-68
2022/05/20 06:05:31;;;;;;;7.25;3.58;;;461.40;1587.20;;;;;;5106250;27;20543;-69
2022/05/20 06:07:59;;;;;;;12.05;3.50;;;461.50;1587.20;;;;;;5106215;27;20103;-69
2022/05/20 06:10:25;;;;;;;11.47;3.80;;;461.60;1536.00;;;;;;5119746;27;20371;-66
2022/05/20 06:12:51;;;;;;;8.18;2.90;;;486.40;1536.00;;;;;;5114074;28;20268;-66
2022/05/20 06:15:22;;;;;;;9.60;3.05;;;486.60;1536.00;;;;;;5113738;28;20028;-64
2022/05/20 06:17:49;;;;;;;7.00;2.47;;;486.60;1536.00;;;;;;5112185;27;20369;-68
2022/05/20 06:20:15;;;;;;;12.43;3.45;;;486.70;1536.00;;;;;;5122928;27;20019;-64
2022/05/20 06:22:42;;;;;;;9.30;2.50;;;486.80;1561.60;;;;;;5122466;27;20053;-65
2022/05/20 06:25:09;;;;;;;10.60;2.97;;;486.80;1536.00;;;;;;5114868;27;20038;-69
2022/05/20 06:27:38;;;;;;;6.40;2.65;;;486.90;1510.40;;;;;;5113306;28;20030;-69
2022/05/20 06:30:08;;;;;;;8.65;2.40;;;487.10;1510.40;;;;;;5113601;28;20061;-68
2022/05/20 06:32:35;;;;;;;13.48;2.72;;;487.20;1459.20;;;;;;5113583;28;20096;-70
2022/05/20 06:40:46;;;;;;;7.20;2.35;;;512.10;1433.60;;;;;;5111672;28;20536;-64
2022/05/20 06:43:19;;;;;;;6.85;2.28;;;512.30;1433.60;;;;;;5113042;28;20023;-68
2022/05/20 06:45:47;;;;;;;9.68;2.78;;;512.50;1433.60;;;;;;5113539;28;20403;-69
2022/05/20 06:48:14;;;;;;;7.82;2.45;;;512.70;1382.40;;;;;;5113325;28;20418;-66
2022/05/20 06:50:40;;;;;;;6.78;2.70;;;512.90;1408.00;;;;;;5113486;28;20383;-69
2022/05/20 06:53:07;;;;;;;7.78;2.47;;;537.60;1408.00;;;;;;5113857;28;20049;-64
2022/05/20 06:55:33;;;;;;;9.85;2.20;;;537.80;1382.40;;;;;;5114303;28;20444;-68
2022/05/20 06:57:59;;;;;;;9.10;1.90;;;538.10;1356.80;;;;;;5113281;28;20494;-69
2022/05/20 07:00:25;;;;;;;6.90;2.10;;;538.10;1280.00;;;;;;5113316;28;20051;-69
2022/05/20 07:02:51;;;;;;;8.68;1.88;;;538.30;1331.20;;;;;;5113473;28;20047;-65
2022/05/20 07:05:18;;;;;;;7.50;2.00;;;538.50;1280.00;;;;;;5113336;28;20016;-66
2022/05/20 07:07:43;;;;;;;6.53;2.53;;;563.20;1305.60;;;;;;5113281;28;20016;-66
2022/05/20 07:10:11;;;;;;;6.40;2.10;;;563.40;1305.60;;;;;;5113271;28;20019;-67
2022/05/20 07:12:37;;;;;;;5.10;2.15;;;563.50;1280.00;;;;;;5113212;28;20020;-65
2022/05/20 07:15:04;;;;;;;6.10;2.30;;;563.70;1305.60;;;;;;5113063;28;20133;-64
2022/05/20 07:17:31;;;;;;;7.03;2.08;;;564.00;1305.60;;;;;;5113296;28;20414;-67
2022/05/20 07:19:57;;;;;;;8.65;2.20;;;588.80;1280.00;;;;;;5113426;28;20039;-70
2022/05/20 07:22:23;;;;;;;7.43;2.05;;;589.00;1280.00;;;;;;5114642;28;20036;-67
2022/05/20 07:24:49;;;;;;;6.68;2.00;;;589.30;1228.80;;;;;;5113073;28;20019;-68
2022/05/20 07:27:16;;;;;;;7.72;1.70;;;589.40;1126.40;;;;;;5113119;28;20464;-66
2022/05/20 07:29:43;;;;;;;4.15;2.30;;;614.40;1203.20;;;;;;5113469;28;20032;-67
2022/05/20 07:32:09;;;;;;;9.95;2.17;;;614.70;1152.00;;;;;;5113243;28;20034;-67
2022/05/20 07:34:35;;;;;;;7.90;2.17;;;615.00;1126.40;;;;;;5112956;28;20028;-65
2022/05/20 07:37:01;;;;;;;8.00;1.98;;;615.20;1049.60;;;;;;5113760;28;20108;-66
2022/05/20 07:39:27;;;;;;;6.10;1.83;;;640.00;1049.60;;;;;;5113559;28;20055;-69
2022/05/20 07:41:53;;;;;;;5.38;1.92;;;640.50;1024.00;;;;;;5113493;28;20055;-65
2022/05/20 07:44:19;;;;;;;7.55;1.70;;;640.70;972.80;;;;;;5113411;28;20476;-66
2022/05/20 07:46:45;;;;;;;5.30;1.73;;;665.60;1049.60;;;;;;5113364;28;20495;-66
2022/05/20 07:49:11;;;;;;;8.85;2.15;;;665.90;998.40;;;;;;5113394;28;20031;-65
2022/05/20 07:51:41;;;;;;;10.43;1.58;;;666.00;947.20;;;;;;5113368;28;20023;-65
2022/05/20 07:54:12;;;;;;;6.22;2.03;;;665.80;947.20;;;;;;5113449;28;20020;-65
2022/05/20 07:56:49;;;;;;;6.40;1.92;;;666.00;921.60;;;;;;5115485;28;20395;-65
2022/05/20 07:59:27;;;;;;;8.80;1.80;;;666.30;870.40;;;;;;5117165;28;20039;-65
2022/05/20 08:01:55;;;;;;;5.95;1.70;;;691.20;896.00;;;;;;5117032;28;20019;-65
2022/05/20 08:05:01;;;;;;;5.63;2.00;;;691.30;896.00;;;;;;5116538;28;20024;-70
2022/05/20 08:07:27;;;;;;;5.88;1.75;;;691.70;844.80;;;;;;5116771;28;20549;-65
2022/05/20 08:09:53;;;;;;;12.18;1.98;;;691.80;870.40;;;;;;5116687;28;20054;-66
2022/05/20 08:12:19;;;;;;;6.40;1.40;;;691.80;870.40;;;;;;5116438;28;20069;-68
2022/05/20 08:14:45;;;;;;;2.88;1.33;;;691.90;768.00;;;;;;5116334;28;20019;-66
2022/05/20 08:17:11;;;;;;;2.50;1.40;;;691.90;819.20;;;;;;5116008;28;20376;-66
2022/05/20 08:19:38;;;;;;;6.47;1.80;;;692.10;819.20;;;;;;5116515;28;20065;-67
2022/05/20 08:22:04;;;;;;;7.03;1.48;;;717.20;819.20;;;;;;5118786;27;20102;-66
2022/05/20 08:24:30;;;;;;;2.05;1.20;;;717.30;793.60;;;;;;5115653;27;20539;-68
2022/05/20 08:26:56;;;;;;;6.43;1.45;;;717.60;793.60;;;;;;5121523;27;20487;-66
2022/05/20 08:29:22;;;;;;;3.53;1.30;;;742.40;844.80;;;;;;5120792;27;20027;-67
2022/05/20 08:31:48;;;;;;;4.88;1.70;;;717.60;793.60;;;;;;5115883;28;20019;-66
2022/05/20 08:34:14;;;;;;;7.13;1.48;;;717.60;768.00;;;;;;5118553;27;20031;-68
2022/05/20 08:36:41;;;;;;;4.00;1.50;;;717.60;793.60;;;;;;5115130;28;20043;-68
2022/05/20 08:39:10;;;;;;;4.65;1.70;;;717.70;768.00;;;;;;5115713;28;20040;-67
2022/05/20 08:41:49;;;;;;;6.80;1.70;;;742.40;819.20;;;;;;5115565;28;20506;-67
2022/05/20 08:44:18;;;;;;;3.35;1.70;;;742.40;793.60;;;;;;5115642;28;20023;-69
2022/05/20 08:46:44;;;;;;;3.50;1.45;;;;;;;;;;5115377;28;20026;-67
2022/05/20 08:49:13;;;;;;;2.78;1.30;;;;;;;;;;5116686;27;20023;-66
2022/05/20 08:51:41;;;;;;;5.22;1.50;;;;;;;;;;5113055;28;20031;-65
2022/05/20 08:54:09;;;;;;;8.52;1.40;;;742.80;768.00;;;;;;5115363;28;20511;-65
2022/05/20 08:56:37;;;;;;;5.78;1.40;;;742.60;793.60;;;;;;5115224;28;20120;-66
2022/05/20 08:59:07;;;;;;;9.48;1.48;;;742.50;768.00;;;;;;5116226;27;20049;-69
2022/05/20 09:01:39;;;;;;;6.57;1.92;;;742.50;768.00;;;;;;5117888;27;20055;-70
2022/05/20 09:04:07;;;;;;;7.40;1.48;;;742.80;742.40;;;;;;5115031;28;20020;-68
2022/05/20 09:06:38;;;;;;;8.63;1.58;;;742.80;768.00;;;;;;5115127;28;20027;-65
2022/05/20 09:09:14;;;;;;;4.70;1.40;;;742.50;742.40;;;;;;5115913;28;20027;-65
2022/05/20 09:11:42;;;;;;;2.65;1.27;;;742.40;768.00;;;;;;5132677;27;20027;-65
2022/05/20 09:17:22;;;;;;;2.63;1.30;;;742.40;716.80;;;;;;5124818;27;20088;-66
2022/05/20 09:20:04;;;;;;;4.97;1.55;;;742.40;716.80;;;;;;5112242;28;20024;-65
2022/05/20 09:22:35;;;;;;;5.68;1.70;;;742.60;716.80;;;;;;5112561;28;20058;-67
2022/05/20 09:25:02;;;;;;;1.98;1.27;;;742.90;768.00;;;;;;5114814;28;20376;-65
2022/05/20 09:27:36;;;;;;;4.95;1.50;;;743.20;742.40;;;;;;5112054;28;20020;-69
2022/05/20 09:30:08;;;;;;;1.50;0.98;;;743.00;742.40;;;;;;5114780;28;20015;-68
2022/05/20 09:32:47;;;;;;;3.50;1.48;;;742.90;716.80;;;;;;5114861;28;20027;-65
2022/05/20 09:35:19;;;;;;;16.10;1.60;;;743.20;742.40;;;;;;5115119;28;20506;-66
2022/05/20 09:37:47;;;;;;;2.88;1.45;;;742.90;716.80;;;;;;5114484;28;20036;-65
2022/05/20 09:40:32;;;;;;;4.90;1.63;;;742.70;716.80;;;;;;5133543;27;20015;-66
2022/05/20 09:43:25;;;;;;;13.45;1.75;;;742.80;742.40;;;;;;5100146;28;20028;-65
2022/05/20 09:45:51;;;;;;;;;;;742.90;716.80;;;;;;5114968;28;20019;-66
2022/05/20 09:48:36;;;;;;;17.58;2.45;;;743.10;742.40;;;;;;5114604;28;19903;-73
2022/05/20 09:51:07;;;;;;;6.15;1.60;;;743.10;742.40;;;;;;5114675;28;20026;-67
2022/05/20 09:53:36;;;;;;;20.73;2.40;;;743.20;742.40;;;;;;5121816;27;20031;-69
2022/05/20 09:56:14;;;;;;;6.30;1.30;;;;;;;;;;5111460;28;20023;-65
2022/05/20 09:58:40;;;;;;;3.70;1.50;;;;;;;;;;5113195;28;20126;-65
2022/05/20 10:01:12;;;;;;;2.63;1.25;;;;;;;;;;5113070;28;20043;-66
2022/05/20 10:03:45;;;;;;;3.58;1.30;;;;;;;;;;5114614;28;20020;-66
2022/05/20 10:06:11;;;;;;;;;;;;;;;;;;5115598;28;20520;-66
2022/05/20 10:08:46;;;;;;;4.50;1.52;;;;;;;;;;5114543;28;19911;-65
2022/05/20 10:11:17;;;;;;;2.55;1.40;;;;;;;;;;5113068;28;20024;-69
2022/05/20 10:14:03;;;;;;;1.95;1.27;;;;;;;;;;5114509;28;20024;-65
2022/05/20 10:16:41;;;;;;;5.25;1.33;;;;;;;;;;5114243;28;20032;-65
2022/05/20 10:19:11;;;;;;;5.78;1.58;;;;;;;;;;5114068;28;20024;-66
2022/05/20 10:21:40;;;;;;;3.13;1.30;;;;;;;;;;5096182;28;20122;-65
2022/05/20 10:24:09;;;;;;;4.80;1.23;;;;;;;;;;5115141;28;20024;-65
2022/05/20 10:26:41;;;;;;;5.00;1.40;;;;;;;;;;5114336;28;20353;-70
2022/05/20 10:34:48;;;;;;;5.60;1.42;;;;;;;;;;5114025;28;20058;-64
2022/05/20 10:37:32;;;;;;;5.13;1.20;;;;;;;;;;5114236;28;20039;-69
2022/05/20 10:40:09;;;;;;;8.23;1.70;;;;;;;;;;5114243;28;20118;-69
2022/05/20 10:42:54;;;;;;;4.25;1.75;;;;;;;;;;5114215;28;20019;-69
2022/05/20 10:48:35;;;;;;;4.60;1.48;;;;;;;;;;5114020;28;20050;-65
2022/05/20 10:51:10;;;;;;;4.22;1.50;;;;;;;;;;5113945;28;20535;-64
2022/05/20 10:53:42;;;;;;;2.60;1.42;;;;;;;;;;5113952;28;20063;-65
2022/05/20 10:56:30;;;;;;;5.10;1.80;;;;;;;;;;5114411;28;20051;-66
2022/05/20 10:59:34;;;;;;;3.75;1.23;;;;;;;;;;5113888;28;20080;-65
2022/05/20 11:02:36;;;;;;;3.95;1.30;;;;;;;;;;5012011;28;20030;-66
2022/05/20 11:05:04;;;;;;;4.18;1.50;;;;;;;;;;4934638;29;20485;-65
2022/05/20 11:07:33;;;;;;;3.38;1.38;;;;;;;;;;4997076;28;20629;-65
2022/05/20 11:10:02;;;;;;;3.70;1.30;;;;;;;;;;5011523;28;20134;-65
2022/05/20 11:12:34;;;;;;;2.47;1.30;;;;;;;;;;4994980;28;20025;-65
2022/05/20 11:15:03;;;;;;;6.53;1.67;;;;;;;;;;5012089;28;20033;-69
2022/05/20 11:17:44;;;;;;;6.88;1.85;;;;;;;;;;5011454;28;20057;-69
2022/05/20 11:20:32;;;;;;;4.03;1.40;;;;;;;;;;5011226;28;20038;-65
2022/05/20 11:23:13;;;;;;;8.45;1.67;;;;;;;;;;5011742;28;20029;-66
2022/05/20 11:25:46;;;;;;;3.28;1.38;;;;;;;;;;5011399;28;20037;-64
2022/05/20 11:28:12;;;;;;;;;;;;;;;;;;5011797;28;20037;-65
2022/05/20 11:31:10;;;;;;;2.08;1.50;;;;;;;;;;5013820;28;19906;-65
2022/05/20 11:34:06;;;;;;;3.72;1.35;;;;;;;;;;5021128;28;20037;-65
2022/05/20 11:36:32;;;;;;;3.70;1.55;;;;;;;;;;5011754;28;20053;-69
2022/05/20 11:39:07;;;;;;;6.03;1.98;;;;;;;;;;5029568;28;20080;-66
2022/05/20 11:41:36;;;;;;;2.88;1.58;;;;;;;;;;5017987;28;20018;-65
2022/05/20 11:44:17;;;;;;;4.32;1.35;;;;;;;;;;5032351;28;20125;-65
2022/05/20 11:47:00;;;;;;;4.18;1.52;;;;;;;;;;5034576;28;20033;-66
2022/05/20 11:49:39;;;;;;;2.63;1.40;;;;;;;;;;5034698;28;20072;-66
2022/05/20 11:52:14;;;;;;;3.13;1.17;;;;;;;;;;5034781;28;20029;-72
2022/05/20 11:54:43;;;;;;;7.28;1.50;;;;;;;;;;5029689;28;20413;-66
2022/05/20 11:57:12;;;;;;;4.22;1.42;;;;;;;;;;5034389;28;20046;-65
2022/05/20 11:59:57;;;;;;;5.70;1.48;;;;;;;;;;5033036;28;20544;-66
2022/05/20 12:02:25;;;;;;;3.53;1.10;;;;;;;;;;5033967;28;20034;-66
2022/05/20 12:04:52;;;;;;;2.67;1.17;;;;;;;;;;5034374;28;20049;-65
2022/05/20 12:07:20;;;;;;;2.58;1.15;;;;;;;;;;5034554;28;20025;-65
2022/05/20 12:09:47;;;;;;;2.88;1.52;;;;;;;;;;5096195;28;20519;-67
2022/05/20 12:12:15;;;;;;;5.22;1.70;;;;;;;;;;5117347;28;20533;-66
2022/05/20 12:14:59;;;;;;;3.63;1.17;;;;;;;;;;5116839;28;20019;-66
2022/05/20 12:17:36;;;;;;;2.97;1.25;;;;;;;;;;5116629;28;20028;-66
2022/05/20 12:25:51;;;;;;;2.38;1.17;;;;;;;;;;5116794;28;20039;-68
2022/05/20 12:28:23;;;;;;;2.83;1.20;;;;;;;;;;5116778;28;20019;-66
2022/05/20 12:31:08;;;;;;;2.50;1.30;;;;;;;;;;5116464;28;20081;-68
2022/05/20 12:33:53;;;;;;;3.40;1.30;;;;;;;;;;5116817;28;20027;-68
2022/05/20 12:36:29;;;;;;;4.68;1.40;;;;;;;;;;5116104;28;20070;-66
2022/05/20 12:39:15;;;;;;;5.05;1.55;;;;;;;;;;5116536;28;20480;-67
2022/05/20 12:41:44;;;;;;;2.55;1.30;;;;;;;;;;5115362;28;20020;-68
2022/05/20 12:44:16;;;;;;;2.67;1.10;;;;;;;;;;5097973;28;20024;-70
2022/05/20 12:47:01;;;;;;;3.15;1.23;;;;;;;;;;5116173;28;20149;-66
2022/05/20 12:49:31;;;;;;;4.20;1.40;;;;;;;;;;5116695;28;20054;-66
2022/05/20 12:52:06;;;;;;;4.20;1.55;;;;;;;;;;5116343;28;20077;-66
2022/05/20 12:54:32;;;;;;;3.17;1.65;;;;;;;;;;5116621;28;20016;-70
2022/05/20 12:57:06;;;;;;;6.47;1.20;;;;;;;;;;5115909;28;20035;-66
2022/05/20 12:59:33;;;;;;;5.20;1.10;;;;;;;;;;5115962;28;20043;-67
2022/05/20 13:02:00;;;;;;;4.50;1.30;;;;;;;;;;5097548;28;20020;-67
2022/05/20 13:04:29;;;;;;;6.00;1.48;;;;;;;;;;5097499;28;20027;-69
2022/05/20 13:06:56;;;;;;;2.25;1.10;;;;;;;;;;5116057;28;20027;-66
2022/05/20 13:09:24;;;;;;;2.60;1.45;;;;;;;;;;5115806;28;20043;-67
2022/05/20 13:11:50;;;;;;;3.08;1.20;;;;;;;;;;5115786;28;20103;-67
2022/05/20 13:14:19;;;;;;;2.42;1.35;;;;;;;;;;5115632;28;20387;-67
2022/05/20 13:16:47;;;;;;;8.27;1.30;;;;;;;;;;5115543;28;20053;-70
2022/05/20 13:19:14;;;;;;;2.75;1.13;;;;;;;;;;5115560;28;20034;-67
2022/05/20 13:21:44;;;;;;;5.18;1.20;;;;;;;;;;5115834;28;20023;-69
2022/05/20 13:24:15;;;;;;;4.53;1.50;;;;;;;;;;5115659;28;20536;-66
2022/05/20 13:26:42;;;;;;;6.75;1.50;;;;;;;;;;5115470;28;20039;-66
2022/05/20 13:29:12;;;;;;;2.72;1.10;;;;;;;;;;5115380;28;20099;-67
2022/05/20 13:31:39;;;;;;;4.00;1.52;;;;;;;;;;5115550;28;20058;-65
2022/05/20 13:34:05;;;;;;;3.05;1.20;;;;;;;;;;5097267;28;20491;-67
2022/05/20 13:36:41;;;;;;;3.08;1.30;;;;;;;;;;5115010;28;20051;-67
2022/05/20 13:39:08;;;;;;;2.15;1.23;;;;;;;;;;5115128;28;20027;-67
2022/05/20 13:41:34;;;;;;;3.05;1.67;;;;;;;;;;5096683;28;20031;-73
2022/05/20 13:44:01;;;;;;;5.43;1.90;;;;;;;;;;5115867;28;20020;-65
2022/05/20 13:49:25;;;;;;;2.10;1.30;;;;;;;;;;5115240;28;20081;-66
2022/05/20 13:51:56;;;;;;;5.50;1.35;;;793.70;844.80;;;;;;5115159;28;20491;-72
2022/05/20 13:54:27;;;;;;;2.45;1.40;;;768.90;819.20;;;;;;5114097;28;20027;-71
2022/05/20 13:56:54;;;;;;;4.57;1.60;;;;;;;;;;5114314;28;20107;-71
2022/05/20 13:59:30;;;;;;;2.78;1.30;;;;;;;;;;5114856;28;20016;-70
2022/05/20 14:01:56;;;;;;;1.92;1.00;;;;;;;;;;5114678;28;20026;-65
2022/05/20 14:04:33;;;;;;;1.77;1.33;;;;;;;;;;5114082;28;20032;-67
2022/05/20 14:07:00;;;;;;;8.63;1.48;;;;;;;;;;5111928;28;20353;-66
2022/05/20 14:09:27;;;;;;;2.33;1.42;;;;;;;;;;5114077;28;20027;-68
2022/05/20 14:11:53;;;;;;;5.18;1.38;;;;;;;;;;5113964;28;20026;-65
2022/05/20 14:14:22;;;;;;;5.38;1.60;;;;;;;;;;5114022;28;20016;-70
2022/05/20 14:16:49;;;;;;;1.27;1.00;;;;;;;;;;5113950;28;20023;-67
2022/05/20 14:19:24;;;;;;;7.40;1.40;;;;;;;;;;5114147;28;20026;-69
2022/05/20 14:21:52;;;;;;;2.08;1.40;;;;;;;;;;5113948;28;20027;-67
2022/05/20 14:24:24;;;;;;;7.95;1.48;;;;;;;;;;5111461;28;20024;-66
2022/05/20 14:26:51;;;;;;;3.33;1.10;;;;;;;;;;5113814;28;20073;-72
2022/05/20 14:29:19;;;;;;;4.05;1.17;;;;;;;;;;5111237;28;20090;-67
2022/05/20 14:31:54;;;;;;;2.63;1.30;;;;;;;;;;5113775;28;20020;-72